Pagrindinis puslapis
METAR-TAF:

METAR-TAF

Oro uostai :

Turino oro uostas

Turinas, Italija

platuma: 45-13N, ilguma: 007-39E, Aukštis: 301 m

Dabartinis oras

Ataskaita buvo paskelbta 16 minutes, ne 12:50 UTC
Vėjas 4 kt iš Pietų/Pietryčių, svyruoja nuo Pietryčių ir Pietų
Temperatūra 20°C
Drėgmė 32%
Slėgis 1031 hPa
Matomumas 10 km arba daugiau
nėra debesų žemiau 1500 m ir nėra kamuolinių lietaus debesų

METAR: LIMF 251250Z 16004KT 130V190 CAVOK 20/03 Q1031

Laikas: 14:06 (13:06 UTC)

Prognozė

Ataskaita buvo paskelbta 2 valandos ir 6 minutes, ne 11:00 UTC
Prognozė galioja nuo 25 metu 12 UTC su 26 metu 12 UTC
Vėjas 4 kt nuo kintamojo kryptimis
Matomumas 10 km arba daugiau
nėra debesų žemiau 1500 m ir nėra kamuolinių lietaus debesų

TAF: LIMF 251100Z 2512/2612 VRB04KT CAVOK

Orai ataskaitas ir orų prognozės (METAR, TAF).

turimą stotys yra geltonos ir raudonos taškus žemėlapyje.

Perkelti pele per norėdami pamatyti stoties vardą.

Tada spustelėkite, norėdami matyti oro stebėjimo ir prognozės.

Norėdami pakeisti žemėlapį: spustelėkite ant žalios mygtukų su juodo kryžiaus žemyn,; žalią mygtuką su brūkšneliu, jei norite nutolinti; arba žalių rodyklių gretimoms žemėlapius.


METAR-TAF: